Time;durP1;ratioP1;P1;durP2;ratioP2;P2;SDS_P1;SDS_P2;PMS_P1;PMS_P2;Temp;Humidity;BMP_temperature;BMP_pressure;BME280_temperature;BME280_humidity;BME280_pressure;Samples;Min_cycle;Max_cycle;Signal;HPM_P1;HPM_P2
2022/03/07 00:02:10;;;;;;;3.55;2.00;;;2.40;99.90;;;;;;5016891;28;20551;-67
2022/03/07 00:04:36;;;;;;;5.43;2.72;;;1.70;99.90;;;;;;5034531;28;20063;-67
2022/03/07 00:07:02;;;;;;;2.80;2.20;;;3.30;99.90;;;;;;5034490;28;20557;-67
2022/03/07 00:09:28;;;;;;;7.28;2.35;;;1.50;99.90;;;;;;5033926;28;20041;-67
2022/03/07 00:11:56;;;;;;;4.68;2.47;;;1.80;99.90;;;;;;5033223;28;20045;-67
2022/03/07 00:14:22;;;;;;;4.20;2.75;;;1.50;99.90;;;;;;5033486;28;20057;-67
2022/03/07 00:16:48;;;;;;;4.75;2.22;;;1.80;99.90;;;;;;5033956;28;20510;-67
2022/03/07 00:19:14;;;;;;;3.78;2.60;;;2.70;99.90;;;;;;5032640;28;20064;-67
2022/03/07 00:21:39;;;;;;;4.88;2.58;;;1.70;99.90;;;;;;5034169;28;20084;-67
2022/03/07 00:24:07;;;;;;;4.18;2.42;;;2.20;99.90;;;;;;5017107;28;20085;-67
2022/03/07 00:26:33;;;;;;;4.20;2.63;;;2.30;99.90;;;;;;5034106;28;20687;-67
2022/03/07 00:28:59;;;;;;;4.35;2.60;;;2.40;99.90;;;;;;5033177;28;20110;-67
2022/03/07 00:31:25;;;;;;;5.32;2.83;;;1.40;99.90;;;;;;5034008;28;20092;-67
2022/03/07 00:33:51;;;;;;;5.22;2.50;;;1.30;99.90;;;;;;5034028;28;20041;-67
2022/03/07 00:36:19;;;;;;;3.72;2.13;;;1.40;99.90;;;;;;5033933;28;20092;-67
2022/03/07 00:38:45;;;;;;;3.35;2.40;;;1.40;99.90;;;;;;5033899;28;20059;-67
2022/03/07 00:41:11;;;;;;;5.50;2.80;;;1.30;99.90;;;;;;5033750;28;20048;-67
2022/03/07 00:43:38;;;;;;;5.35;2.72;;;1.60;99.90;;;;;;5032754;28;20046;-67
2022/03/07 00:46:04;;;;;;;5.40;2.38;;;2.20;99.90;;;;;;5033856;28;20392;-67
2022/03/07 00:48:30;;;;;;;5.47;2.70;;;1.30;99.90;;;;;;5033827;28;20426;-67
2022/03/07 00:50:55;;;;;;;5.47;2.33;;;1.50;99.90;;;;;;5033775;28;20052;-67
2022/03/07 00:53:23;;;;;;;3.97;2.40;;;1.70;99.90;;;;;;5034203;28;20051;-68
2022/03/07 00:55:53;;;;;;;6.50;2.90;;;1.20;99.90;;;;;;5032746;28;20473;-67
2022/03/07 00:58:20;;;;;;;4.55;2.92;;;1.70;99.90;;;;;;5032648;28;20060;-67
2022/03/07 01:00:46;;;;;;;4.72;3.00;;;1.50;99.90;;;;;;5016157;28;20489;-68
2022/03/07 01:03:13;;;;;;;6.13;2.47;;;1.40;99.90;;;;;;5033618;28;20041;-67
2022/03/07 01:05:41;;;;;;;4.00;2.65;;;1.50;99.90;;;;;;5033567;28;20049;-67
2022/03/07 01:08:07;;;;;;;4.68;2.60;;;1.20;99.90;;;;;;5032361;28;20045;-67
2022/03/07 01:10:34;;;;;;;5.00;2.78;;;1.10;99.90;;;;;;5033053;28;20441;-67
2022/03/07 01:13:00;;;;;;;4.95;2.65;;;1.10;99.90;;;;;;5032448;28;20362;-67
2022/03/07 01:15:25;;;;;;;3.97;2.53;;;1.30;99.90;;;;;;5033442;28;20049;-67
2022/03/07 01:17:53;;;;;;;5.22;2.83;;;1.10;99.90;;;;;;5033452;28;20056;-67
2022/03/07 01:20:19;;;;;;;3.72;2.55;;;1.00;99.90;;;;;;5033068;28;20429;-67
2022/03/07 01:22:45;;;;;;;5.85;2.63;;;1.90;99.90;;;;;;5033456;28;20053;-67
2022/03/07 01:25:11;;;;;;;5.45;3.00;;;1.00;99.90;;;;;;5032128;28;20042;-67
2022/03/07 01:27:36;;;;;;;4.20;2.35;;;1.40;99.90;;;;;;5033443;28;20045;-67
2022/03/07 01:30:04;;;;;;;4.00;2.30;;;1.00;99.90;;;;;;5015843;28;20474;-67
2022/03/07 01:32:29;;;;;;;2.90;1.92;;;1.00;99.90;;;;;;5033298;28;20072;-67
2022/03/07 01:34:55;;;;;;;3.50;2.58;;;1.60;99.90;;;;;;5032120;28;20474;-68
2022/03/07 01:37:21;;;;;;;3.65;2.05;;;1.00;99.90;;;;;;5033435;28;20068;-68
2022/03/07 01:39:46;;;;;;;3.90;2.25;;;1.80;99.90;;;;;;5032524;28;20466;-68
2022/03/07 01:42:12;;;;;;;4.55;2.30;;;0.90;99.90;;;;;;5037207;28;20053;-68
2022/03/07 01:44:38;;;;;;;4.70;2.53;;;0.70;99.90;;;;;;5037202;28;20060;-67
2022/03/07 01:47:06;;;;;;;4.50;2.65;;;1.10;99.90;;;;;;5019395;28;20485;-67
2022/03/07 01:49:32;;;;;;;3.45;2.30;;;0.80;99.90;;;;;;5037119;28;20045;-68
2022/03/07 01:51:58;;;;;;;5.07;2.22;;;0.80;99.90;;;;;;5035819;28;20374;-68
2022/03/07 01:54:24;;;;;;;5.07;2.58;;;1.00;99.90;;;;;;5035948;28;20474;-68
2022/03/07 01:56:52;;;;;;;4.50;2.53;;;2.30;99.90;;;;;;5036902;28;20045;-67
2022/03/07 01:59:20;;;;;;;5.28;2.50;;;1.30;99.90;;;;;;5035665;28;20045;-68
2022/03/07 02:01:47;;;;;;;4.88;2.78;;;1.40;99.90;;;;;;5019570;28;20045;-68
2022/03/07 02:04:13;;;;;;;3.90;2.63;;;1.20;99.90;;;;;;5036839;28;20393;-67
2022/03/07 02:06:39;;;;;;;3.53;2.45;;;1.60;99.90;;;;;;5036709;28;20042;-67
2022/03/07 02:09:07;;;;;;;4.55;2.42;;;2.10;99.90;;;;;;5035754;28;20056;-67
2022/03/07 02:11:34;;;;;;;6.10;2.80;;;0.90;99.90;;;;;;5036674;28;20045;-68
2022/03/07 02:14:20;;;;;;;5.03;2.55;;;0.60;99.90;;;;;;5036609;28;20083;-67
2022/03/07 02:16:46;;;;;;;3.15;2.47;;;0.60;99.90;;;;;;5036659;28;20045;-68
2022/03/07 02:19:13;;;;;;;4.82;2.45;;;0.70;99.90;;;;;;5034939;28;20064;-67
2022/03/07 02:21:47;;;;;;;4.85;2.70;;;1.10;99.90;;;;;;5035515;28;20059;-68
2022/03/07 02:24:13;;;;;;;;;;;0.60;99.90;;;;;;5037303;28;20048;-68
2022/03/07 02:26:39;;;;;;;4.93;2.17;;;0.40;99.90;;;;;;5035158;28;19975;-68
2022/03/07 02:29:07;;;;;;;4.22;2.22;;;0.40;99.90;;;;;;5036570;28;20044;-68
2022/03/07 02:31:34;;;;;;;3.65;2.33;;;0.40;99.90;;;;;;5036343;28;20128;-68
2022/03/07 02:34:01;;;;;;;4.68;2.10;;;0.50;99.90;;;;;;5035319;28;20493;-68
2022/03/07 02:36:27;;;;;;;5.32;2.60;;;0.30;99.90;;;;;;5036252;28;20049;-68
2022/03/07 02:38:53;;;;;;;4.88;2.28;;;1.20;99.90;;;;;;5036120;28;20045;-68
2022/03/07 02:41:19;;;;;;;3.65;2.22;;;0.50;99.90;;;;;;5034276;28;20095;-68
2022/03/07 02:43:45;;;;;;;3.45;2.30;;;0.90;99.90;;;;;;5035762;28;20520;-68
2022/03/07 02:46:10;;;;;;;5.72;2.55;;;1.30;99.90;;;;;;5036057;28;20049;-68
2022/03/07 02:48:36;;;;;;;4.38;2.58;;;1.70;99.90;;;;;;5035336;28;20103;-68
2022/03/07 02:51:02;;;;;;;4.28;2.20;;;0.40;99.90;;;;;;5034173;28;20501;-68
2022/03/07 02:53:28;;;;;;;2.55;2.03;;;0.30;99.90;;;;;;5035583;28;20049;-68
2022/03/07 02:55:54;;;;;;;4.28;2.55;;;0.30;99.90;;;;;;5034893;28;20140;-68
2022/03/07 02:58:20;;;;;;;4.45;2.70;;;0.40;99.90;;;;;;5035452;28;20524;-68
2022/03/07 03:00:47;;;;;;;5.90;2.40;;;0.40;99.90;;;;;;5018417;28;20049;-68
2022/03/07 03:03:12;;;;;;;5.35;2.67;;;0.90;99.90;;;;;;5035754;28;20106;-68
2022/03/07 03:05:38;;;;;;;3.80;2.00;;;0.40;99.90;;;;;;5035608;28;20053;-68
2022/03/07 03:08:05;;;;;;;3.17;2.28;;;0.10;99.90;;;;;;5035907;28;20187;-68
2022/03/07 03:10:30;;;;;;;4.07;1.88;;;0.30;99.90;;;;;;5034512;28;20050;-69
2022/03/07 03:12:56;;;;;;;3.65;1.98;;;1.00;99.90;;;;;;5034599;28;20072;-68
2022/03/07 03:15:23;;;;;;;3.42;2.10;;;0.10;99.90;;;;;;5034536;28;20052;-68
2022/03/07 03:17:48;;;;;;;2.85;1.80;;;0.20;99.90;;;;;;5035754;28;20107;-69
2022/03/07 03:20:15;;;;;;;4.82;2.25;;;1.00;99.90;;;;;;5034963;28;20057;-68
2022/03/07 03:22:43;;;;;;;2.67;1.60;;;0.20;99.90;;;;;;5035343;28;20057;-68
2022/03/07 03:25:10;;;;;;;4.38;2.30;;;0.20;99.90;;;;;;5035741;28;20128;-68
2022/03/07 03:27:37;;;;;;;3.70;1.90;;;0.40;99.90;;;;;;5034267;28;20056;-68
2022/03/07 03:30:05;;;;;;;2.72;1.98;;;0.20;99.90;;;;;;5035223;28;20084;-69
2022/03/07 03:32:31;;;;;;;4.30;2.42;;;0.30;99.90;;;;;;5035190;28;20045;-68
2022/03/07 03:34:57;;;;;;;3.17;2.17;;;0.10;99.90;;;;;;5033908;28;20046;-68
2022/03/07 03:37:24;;;;;;;4.75;2.67;;;0.10;99.90;;;;;;5035083;28;20107;-68
2022/03/07 03:39:51;;;;;;;4.30;2.47;;;0.00;99.90;;;;;;5034505;28;20179;-68
2022/03/07 03:42:16;;;;;;;5.72;2.53;;;-0.20;99.90;;;;;;5033985;28;20053;-69
2022/03/07 03:44:42;;;;;;;3.20;2.33;;;1.20;99.90;;;;;;5034960;28;20072;-68
2022/03/07 03:47:08;;;;;;;5.18;2.70;;;0.10;99.90;;;;;;5034931;28;20052;-68
2022/03/07 03:49:34;;;;;;;5.65;2.22;;;0.10;99.90;;;;;;5034858;28;20444;-68
2022/03/07 03:52:00;;;;;;;4.15;2.38;;;0.00;99.90;;;;;;5034770;28;20049;-68
2022/03/07 03:54:25;;;;;;;3.72;2.20;;;1.30;99.90;;;;;;5033528;28;20045;-68
2022/03/07 03:56:51;;;;;;;3.35;2.55;;;0.30;99.90;;;;;;5033548;28;20072;-68
2022/03/07 03:59:17;;;;;;;4.32;2.05;;;1.00;99.90;;;;;;5034582;28;20048;-68
2022/03/07 04:01:44;;;;;;;4.20;2.00;;;0.20;99.90;;;;;;5017324;28;20049;-68
2022/03/07 04:04:14;;;;;;;3.22;2.25;;;-0.10;99.90;;;;;;5034398;28;20107;-68
2022/03/07 04:06:41;;;;;;;4.80;2.60;;;-0.10;99.90;;;;;;5034568;28;20049;-68
2022/03/07 04:09:27;;;;;;;3.85;2.22;;;0.00;99.90;;;;;;5034493;28;20072;-68
2022/03/07 04:11:54;;;;;;;4.32;2.70;;;1.10;99.90;;;;;;5033963;28;20057;-68
2022/03/07 04:14:20;;;;;;;5.32;3.13;;;0.00;99.90;;;;;;5034606;28;20077;-68
2022/03/07 04:16:45;;;;;;;4.30;2.22;;;1.10;99.90;;;;;;5033367;28;20068;-68
2022/03/07 04:19:12;;;;;;;3.90;2.55;;;1.40;99.90;;;;;;5033054;28;20061;-68
2022/03/07 04:21:39;;;;;;;4.57;2.45;;;0.20;99.90;;;;;;5034290;28;20359;-68
2022/03/07 04:24:06;;;;;;;3.95;2.45;;;-0.10;99.90;;;;;;5034435;28;20049;-68
2022/03/07 04:26:32;;;;;;;3.10;2.22;;;-0.20;99.90;;;;;;5034213;28;20048;-68
2022/03/07 04:29:00;;;;;;;4.72;2.55;;;-0.20;99.90;;;;;;5034140;28;20167;-68
2022/03/07 04:31:25;;;;;;;4.05;2.20;;;-0.20;99.90;;;;;;5034067;28;20111;-68
2022/03/07 04:33:51;;;;;;;2.55;2.00;;;0.00;99.90;;;;;;5034322;28;20132;-69
2022/03/07 04:36:19;;;;;;;5.00;2.05;;;-0.20;99.90;;;;;;5034021;28;20143;-69
2022/03/07 04:38:45;;;;;;;2.90;2.17;;;0.00;99.90;;;;;;5032892;28;20052;-68
2022/03/07 04:41:11;;;;;;;2.42;2.08;;;0.80;99.90;;;;;;5033440;28;20056;-69
2022/03/07 04:43:36;;;;;;;3.05;2.45;;;1.00;99.90;;;;;;5033310;28;20049;-68
2022/03/07 04:46:04;;;;;;;2.55;2.03;;;-0.40;99.90;;;;;;5016458;28;20536;-68
2022/03/07 04:48:30;;;;;;;3.63;2.17;;;-0.40;99.90;;;;;;5033837;28;20083;-68
2022/03/07 04:50:56;;;;;;;5.13;2.33;;;-0.30;99.90;;;;;;5033780;28;20041;-68
2022/03/07 04:53:21;;;;;;;4.20;2.67;;;-0.30;99.90;;;;;;5033752;28;20045;-69
2022/03/07 04:55:48;;;;;;;2.92;2.15;;;-0.30;99.90;;;;;;5034018;28;20095;-69
2022/03/07 04:58:13;;;;;;;3.35;2.42;;;0.40;99.90;;;;;;5033700;28;20103;-69
2022/03/07 05:00:39;;;;;;;3.45;2.35;;;0.60;99.90;;;;;;5033576;28;20045;-69
2022/03/07 05:03:05;;;;;;;4.78;2.47;;;-0.20;99.90;;;;;;5033836;28;20049;-70
2022/03/07 05:05:31;;;;;;;3.60;2.33;;;0.40;99.90;;;;;;5032482;28;20037;-69
2022/03/07 05:07:57;;;;;;;3.33;2.45;;;-0.20;99.90;;;;;;5032600;28;20386;-69
2022/03/07 05:10:22;;;;;;;3.03;2.10;;;0.80;99.90;;;;;;5033123;28;20094;-69
2022/03/07 05:12:48;;;;;;;2.55;2.10;;;0.50;99.90;;;;;;5033603;28;20375;-68
2022/03/07 05:15:14;;;;;;;2.72;1.92;;;-0.10;99.90;;;;;;5033130;28;20050;-69
2022/03/07 05:17:51;;;;;;;2.65;2.22;;;-0.30;99.90;;;;;;5033645;28;20402;-69
2022/03/07 05:20:17;;;;;;;5.45;2.58;;;0.10;99.90;;;;;;5032185;28;20061;-69
2022/03/07 05:22:43;;;;;;;2.80;2.10;;;0.10;99.90;;;;;;5016183;28;20093;-70
2022/03/07 05:25:10;;;;;;;3.97;2.40;;;0.30;99.90;;;;;;5033653;28;20207;-69
2022/03/07 05:27:36;;;;;;;3.42;2.53;;;0.40;99.90;;;;;;5033144;28;20045;-69
2022/03/07 05:30:03;;;;;;;3.33;2.22;;;-0.40;99.90;;;;;;5032650;28;20370;-69
2022/03/07 05:32:29;;;;;;;3.00;2.25;;;-0.40;99.90;;;;;;5033471;28;20052;-69
2022/03/07 05:34:55;;;;;;;2.97;2.28;;;-0.30;99.90;;;;;;5033501;28;20045;-69
2022/03/07 05:37:20;;;;;;;3.25;2.33;;;0.10;99.90;;;;;;5032195;28;20140;-69
2022/03/07 05:39:46;;;;;;;3.65;2.80;;;-0.40;99.90;;;;;;5033133;28;20045;-70
2022/03/07 05:42:12;;;;;;;3.63;2.75;;;0.30;99.90;;;;;;5033293;28;20075;-69
2022/03/07 05:44:37;;;;;;;3.95;2.63;;;0.40;99.90;;;;;;5032089;28;20053;-69
2022/03/07 05:47:03;;;;;;;3.03;2.22;;;-0.50;99.90;;;;;;5032918;28;20132;-70
2022/03/07 05:49:29;;;;;;;2.95;2.47;;;-0.50;99.90;;;;;;5032003;28;20049;-69
2022/03/07 05:51:55;;;;;;;4.00;2.40;;;-0.30;99.90;;;;;;5033224;28;20072;-70
2022/03/07 05:54:21;;;;;;;5.57;2.80;;;0.40;99.90;;;;;;5033109;28;20478;-70
2022/03/07 05:56:47;;;;;;;5.07;3.10;;;-0.60;99.90;;;;;;5033167;28;20462;-69
2022/03/07 05:59:12;;;;;;;4.47;3.08;;;-0.60;99.90;;;;;;5033055;28;20045;-69
2022/03/07 06:01:38;;;;;;;3.92;3.03;;;1.00;99.90;;;;;;5033086;28;20050;-70
2022/03/07 06:04:04;;;;;;;3.65;2.88;;;-0.40;99.90;;;;;;5033134;28;20482;-70
2022/03/07 06:06:30;;;;;;;3.33;2.70;;;-0.50;99.90;;;;;;5032768;28;20053;-70
2022/03/07 06:08:56;;;;;;;3.78;3.08;;;1.10;99.90;;;;;;5032536;28;20046;-70
2022/03/07 06:11:22;;;;;;;4.47;3.38;;;-0.50;99.90;;;;;;5031154;28;20142;-69
2022/03/07 06:13:47;;;;;;;5.47;3.95;;;0.10;99.90;;;;;;5033234;28;20179;-70
2022/03/07 06:16:13;;;;;;;5.93;4.82;;;-0.50;99.90;;;;;;5032001;28;20081;-69
2022/03/07 06:18:39;;;;;;;9.55;6.13;;;-0.30;99.90;;;;;;5033023;28;20057;-70
2022/03/07 06:21:05;;;;;;;5.78;4.97;;;0.80;99.90;;;;;;5031077;28;20046;-70
2022/03/07 06:23:31;;;;;;;7.30;4.40;;;-0.40;99.90;;;;;;5031751;28;20049;-70
2022/03/07 06:25:58;;;;;;;5.80;3.58;;;-0.30;99.90;;;;;;5033071;28;20057;-70
2022/03/07 06:28:23;;;;;;;4.93;3.08;;;-0.40;99.90;;;;;;5036087;28;20049;-69
2022/03/07 06:30:49;;;;;;;4.45;3.10;;;0.50;99.90;;;;;;5035419;28;20037;-69
2022/03/07 06:33:16;;;;;;;5.47;3.20;;;-0.50;99.90;;;;;;5036321;28;20053;-69
2022/03/07 06:35:42;;;;;;;4.50;3.10;;;-0.60;99.90;;;;;;5036194;28;20049;-69
2022/03/07 06:38:08;;;;;;;3.53;2.88;;;-0.50;99.90;;;;;;5019405;28;20478;-69
2022/03/07 06:40:34;;;;;;;3.53;2.60;;;-0.20;99.90;;;;;;5035488;28;20049;-70
2022/03/07 06:43:03;;;;;;;3.58;2.92;;;-0.50;99.90;;;;;;5035310;28;20132;-70
2022/03/07 06:45:30;;;;;;;5.20;3.50;;;0.50;99.90;;;;;;5018607;28;20053;-69
2022/03/07 06:47:57;;;;;;;7.30;4.00;;;0.90;99.90;;;;;;5034838;28;20053;-69
2022/03/07 06:50:23;;;;;;;5.38;3.50;;;0.30;99.90;;;;;;5034786;28;20497;-69
2022/03/07 06:52:48;;;;;;;5.07;4.00;;;-0.40;99.90;;;;;;5034833;28;20045;-69
2022/03/07 06:55:15;;;;;;;6.85;3.80;;;-0.30;99.90;;;;;;5018416;28;20053;-69
2022/03/07 06:57:42;;;;;;;5.32;3.42;;;-0.30;99.90;;;;;;5035279;28;20386;-69
2022/03/07 07:00:10;;;;;;;7.72;4.10;;;-0.40;99.90;;;;;;5034610;28;20096;-69
2022/03/07 07:02:36;;;;;;;4.22;3.75;;;-0.20;99.90;;;;;;5035737;28;20123;-69
2022/03/07 07:05:03;;;;;;;6.70;4.05;;;0.60;99.90;;;;;;5018303;28;20046;-68
2022/03/07 07:07:30;;;;;;;5.28;3.90;;;-0.20;99.90;;;;;;5036501;28;20373;-68
2022/03/07 07:09:56;;;;;;;6.60;4.68;;;-0.30;99.90;;;;;;5035112;28;20120;-68
2022/03/07 07:12:22;;;;;;;6.28;4.03;;;-0.10;99.90;;;;;;5035601;28;20072;-68
2022/03/07 07:14:48;;;;;;;5.70;3.95;;;0.30;99.90;;;;;;5035507;28;20045;-68
2022/03/07 07:17:15;;;;;;;5.50;4.15;;;-0.10;99.90;;;;;;5035465;28;20096;-67
2022/03/07 07:19:41;;;;;;;8.23;4.50;;;0.00;99.90;;;;;;5035154;28;20468;-67
2022/03/07 07:22:07;;;;;;;7.53;4.43;;;0.10;99.90;;;;;;5035508;28;20057;-67
2022/03/07 07:24:33;;;;;;;6.90;4.55;;;1.00;99.90;;;;;;5034370;28;20132;-67
2022/03/07 07:26:58;;;;;;;6.65;4.32;;;0.60;99.90;;;;;;5035305;28;20046;-68
2022/03/07 07:29:24;;;;;;;6.97;4.93;;;0.20;99.90;;;;;;5034244;28;20462;-67
2022/03/07 07:31:51;;;;;;;8.43;5.03;;;0.20;99.90;;;;;;5034920;28;20088;-67
2022/03/07 07:34:18;;;;;;;10.35;6.20;;;0.10;99.90;;;;;;5035159;28;20057;-67
2022/03/07 07:36:44;;;;;;;6.65;4.57;;;1.90;99.90;;;;;;5033902;28;20071;-67
2022/03/07 07:39:10;;;;;;;7.43;4.50;;;0.40;99.90;;;;;;5034915;28;20060;-67
2022/03/07 07:41:36;;;;;;;9.18;5.32;;;0.30;99.90;;;;;;5034753;28;20045;-67
2022/03/07 07:44:02;;;;;;;6.55;4.97;;;1.00;99.90;;;;;;5034215;28;20513;-66
2022/03/07 07:46:28;;;;;;;7.88;4.38;;;1.50;99.90;;;;;;5034109;28;20107;-67
2022/03/07 07:48:54;;;;;;;6.70;4.43;;;0.50;99.90;;;;;;5033980;28;20394;-67
2022/03/07 07:51:20;;;;;;;11.27;4.78;;;0.90;99.90;;;;;;5034914;28;20049;-66
2022/03/07 07:53:46;;;;;;;9.43;4.50;;;2.10;99.90;;;;;;5034791;28;20563;-67
2022/03/07 07:56:12;;;;;;;5.63;3.63;;;0.80;99.90;;;;;;5033793;28;20470;-67
2022/03/07 07:58:39;;;;;;;5.55;3.80;;;0.90;99.90;;;;;;5034699;28;20055;-67
2022/03/07 08:01:05;;;;;;;5.43;3.45;;;1.00;99.90;;;;;;5034757;28;20048;-67
2022/03/07 08:03:30;;;;;;;5.72;3.38;;;1.80;99.90;;;;;;5033806;28;20046;-67
2022/03/07 08:05:57;;;;;;;4.90;2.75;;;2.00;99.90;;;;;;5034680;28;20072;-67
2022/03/07 08:08:24;;;;;;;4.18;2.70;;;1.60;99.90;;;;;;5033866;28;20057;-67
2022/03/07 08:10:50;;;;;;;4.97;3.28;;;1.60;99.90;;;;;;5033175;28;20465;-66
2022/03/07 08:13:16;;;;;;;3.67;2.58;;;2.00;99.90;;;;;;5034622;28;20096;-66
2022/03/07 08:15:42;;;;;;;8.63;2.70;;;1.80;99.90;;;;;;5034543;28;20045;-66
2022/03/07 08:18:08;;;;;;;3.97;2.25;;;2.50;99.90;;;;;;5034489;28;20052;-66
2022/03/07 08:20:35;;;;;;;4.32;2.72;;;3.30;99.90;;;;;;5034426;28;20106;-66
2022/03/07 08:23:02;;;;;;;5.07;2.70;;;2.20;99.90;;;;;;5034394;28;20049;-66
2022/03/07 08:25:27;;;;;;;3.35;2.40;;;2.10;99.90;;;;;;5033223;28;20033;-67
2022/03/07 08:27:53;;;;;;;4.47;2.40;;;3.50;99.90;;;;;;5034316;28;20512;-67
2022/03/07 08:30:24;;;;;;;4.60;2.33;;;2.60;99.90;;;;;;5034179;28;20044;-67
2022/03/07 08:32:50;;;;;;;6.82;3.28;;;2.20;99.90;;;;;;5033494;28;20049;-67
2022/03/07 08:35:16;;;;;;;5.70;2.45;;;2.30;99.90;;;;;;5034194;28;20413;-66
2022/03/07 08:37:45;;;;;;;4.68;2.42;;;2.30;99.90;;;;;;5034207;28;20076;-66
2022/03/07 08:40:13;;;;;;;3.42;2.17;;;3.00;99.90;;;;;;5032431;28;20168;-66
2022/03/07 08:42:39;;;;;;;4.93;2.50;;;2.60;99.90;;;;;;5032811;28;20088;-66
2022/03/07 08:45:06;;;;;;;3.25;2.38;;;2.50;99.90;;;;;;5034038;28;20049;-66
2022/03/07 08:47:33;;;;;;;3.67;1.73;;;2.70;99.90;;;;;;5034160;28;20132;-66
2022/03/07 08:49:58;;;;;;;2.03;1.23;;;4.00;99.90;;;;;;5032907;28;20485;-66
2022/03/07 08:52:24;;;;;;;3.30;1.40;;;4.00;99.90;;;;;;5033011;28;20053;-66
2022/03/07 08:54:50;;;;;;;2.47;1.20;;;3.70;99.90;;;;;;5033391;28;20041;-66
2022/03/07 08:57:16;;;;;;;3.40;1.95;;;3.30;99.90;;;;;;5032756;28;20048;-66
2022/03/07 08:59:43;;;;;;;3.20;1.30;;;3.10;99.90;;;;;;5030855;28;20037;-66
2022/03/07 09:02:10;;;;;;;3.00;1.65;;;3.30;99.90;;;;;;5032729;28;20056;-66
2022/03/07 09:04:42;;;;;;;3.63;1.60;;;3.80;99.90;;;;;;5033362;28;20041;-65
2022/03/07 09:07:08;;;;;;;4.65;1.50;;;3.90;99.90;;;;;;5031992;28;20061;-65
2022/03/07 09:09:35;;;;;;;1.65;1.10;;;3.40;99.90;;;;;;5032787;28;20034;-65
2022/03/07 09:12:02;;;;;;;2.67;0.90;;;3.60;99.90;;;;;;5033204;28;20390;-65
2022/03/07 09:14:28;;;;;;;3.28;1.00;;;3.50;99.90;;;;;;5032975;28;20512;-65
2022/03/07 09:16:54;;;;;;;3.03;1.00;;;4.10;99.90;;;;;;5033213;28;20128;-65
2022/03/07 09:19:20;;;;;;;5.25;1.10;;;3.70;99.90;;;;;;5033061;28;20102;-65
2022/03/07 09:21:46;;;;;;;4.40;1.20;;;3.80;99.90;;;;;;5031408;28;20062;-65
2022/03/07 09:24:12;;;;;;;2.83;1.40;;;3.70;99.90;;;;;;5032076;28;20048;-65
2022/03/07 09:26:38;;;;;;;2.92;1.60;;;4.00;99.90;;;;;;5032092;28;20390;-65
2022/03/07 09:29:04;;;;;;;5.00;1.35;;;3.80;99.90;;;;;;5032531;28;20042;-65
2022/03/07 09:31:30;;;;;;;4.47;1.20;;;3.90;99.90;;;;;;5032498;28;20490;-65
2022/03/07 09:33:56;;;;;;;4.00;1.40;;;4.00;99.90;;;;;;5033091;28;20046;-65
2022/03/07 09:36:22;;;;;;;4.03;1.30;;;4.50;99.90;;;;;;5033055;28;20041;-67
2022/03/07 09:38:50;;;;;;;4.85;1.80;;;4.00;99.90;;;;;;5032674;28;20053;-67
2022/03/07 09:41:17;;;;;;;3.40;1.65;;;4.20;99.90;;;;;;5032594;28;20045;-65
2022/03/07 09:43:44;;;;;;;1.45;1.20;;;4.30;99.90;;;;;;5015679;28;20126;-65
2022/03/07 09:46:10;;;;;;;5.18;1.60;;;4.50;99.90;;;;;;5015957;28;20405;-64
2022/03/07 09:48:36;;;;;;;3.25;1.40;;;5.00;99.90;;;;;;5033304;28;20115;-64
2022/03/07 09:51:02;;;;;;;3.00;1.48;;;4.60;99.90;;;;;;5033392;28;20467;-65
2022/03/07 09:53:27;;;;;;;6.30;1.48;;;4.50;99.90;;;;;;5032508;28;20141;-64
2022/03/07 09:55:53;;;;;;;3.38;1.00;;;4.60;99.90;;;;;;5033298;28;20045;-64
2022/03/07 09:58:19;;;;;;;4.82;1.50;;;4.70;99.90;;;;;;5032062;28;20103;-65
2022/03/07 10:00:45;;;;;;;3.85;1.52;;;4.70;99.90;;;;;;5032943;28;20111;-65
2022/03/07 10:03:13;;;;;;;3.80;1.27;;;4.70;99.90;;;;;;5036958;28;20474;-65
2022/03/07 10:05:42;;;;;;;1.90;1.23;;;4.80;99.90;;;;;;5036665;28;20515;-64
2022/03/07 10:08:09;;;;;;;3.25;1.38;;;4.80;99.90;;;;;;5036883;28;20050;-64
2022/03/07 10:10:41;;;;;;;2.40;1.20;;;4.90;99.90;;;;;;5036364;28;20042;-64
2022/03/07 10:13:11;;;;;;;2.28;1.23;;;4.90;99.90;;;;;;5036897;28;20052;-64
2022/03/07 10:15:39;;;;;;;2.80;1.23;;;4.90;99.90;;;;;;5037042;28;20055;-64
2022/03/07 10:18:05;;;;;;;3.90;1.20;;;5.20;99.90;;;;;;5036701;28;20128;-65
2022/03/07 10:20:31;;;;;;;2.58;1.10;;;5.10;99.90;;;;;;5036478;28;20053;-64
2022/03/07 10:23:01;;;;;;;6.13;1.40;;;5.20;99.90;;;;;;5036634;28;20100;-65
2022/03/07 10:25:28;;;;;;;2.78;1.20;;;5.20;99.90;;;;;;5035391;28;20464;-65
2022/03/07 10:27:55;;;;;;;3.13;1.25;;;5.40;99.90;;;;;;5036797;28;20053;-64
2022/03/07 10:30:25;;;;;;;4.43;1.05;;;5.60;99.90;;;;;;5036485;28;20045;-65
2022/03/07 10:32:56;;;;;;;1.88;1.10;;;5.30;99.90;;;;;;5037245;28;20049;-64
2022/03/07 10:35:33;;;;;;;1.95;1.17;;;5.40;99.90;;;;;;5019589;28;20501;-64
2022/03/07 10:38:08;;;;;;;4.63;1.33;;;5.40;99.90;;;;;;5036699;28;20076;-65
2022/03/07 10:40:39;;;;;;;2.50;1.38;;;5.40;99.90;;;;;;5018655;28;20048;-66
2022/03/07 10:43:05;;;;;;;3.20;2.35;;;5.70;99.90;;;;;;5035125;28;20116;-65
2022/03/07 10:45:42;;;;;;;2.22;1.13;;;6.90;99.90;;;;;;5036178;28;20060;-65
2022/03/07 10:48:08;;;;;;;1.85;1.17;;;5.60;99.90;;;;;;5035380;28;20065;-65
2022/03/07 10:50:34;;;;;;;2.22;1.10;;;5.60;99.90;;;;;;5036193;28;20038;-65
2022/03/07 10:53:04;;;;;;;1.50;0.93;;;5.60;99.90;;;;;;5036098;28;20045;-66
2022/03/07 10:55:30;;;;;;;3.40;0.80;;;5.70;99.90;;;;;;5035990;28;20143;-65
2022/03/07 10:58:12;;;;;;;1.88;1.10;;;5.80;99.90;;;;;;5034841;28;20053;-65
2022/03/07 11:00:58;;;;;;;3.45;1.10;;;5.90;99.90;;;;;;5035926;28;20136;-65
2022/03/07 11:03:26;;;;;;;4.35;1.35;;;5.90;99.90;;;;;;5036045;28;20053;-66
2022/03/07 11:05:52;;;;;;;2.38;1.10;;;5.90;99.90;;;;;;5034933;28;20045;-66
2022/03/07 11:08:20;;;;;;;1.92;1.20;;;6.40;99.90;;;;;;5034637;28;20135;-66
2022/03/07 11:10:52;;;;;;;1.90;1.38;;;6.00;99.90;;;;;;5017832;28;20057;-66
2022/03/07 11:13:19;;;;;;;3.45;1.20;;;6.70;99.90;;;;;;5034996;28;20045;-66
2022/03/07 11:15:46;;;;;;;3.70;1.40;;;6.10;99.90;;;;;;5036138;28;20049;-65
2022/03/07 11:18:14;;;;;;;3.13;1.10;;;6.20;99.90;;;;;;5035931;28;20052;-66
2022/03/07 11:20:42;;;;;;;2.28;1.60;;;6.30;99.90;;;;;;5035637;28;20057;-66
2022/03/07 11:23:12;;;;;;;4.97;1.70;;;6.30;99.90;;;;;;5035513;28;20057;-66
2022/03/07 11:25:41;;;;;;;3.70;0.93;;;6.40;99.90;;;;;;5035586;28;20053;-65
2022/03/07 11:28:07;;;;;;;1.70;1.00;;;6.40;99.90;;;;;;5035734;28;20404;-67
2022/03/07 11:30:35;;;;;;;1.80;1.00;;;6.50;99.90;;;;;;5035352;28;20045;-67
2022/03/07 11:33:12;;;;;;;3.35;1.45;;;6.50;99.90;;;;;;5034217;28;20045;-66
2022/03/07 11:35:56;;;;;;;2.33;0.90;;;6.60;99.90;;;;;;5034482;28;20093;-67
2022/03/07 11:38:31;;;;;;;1.25;0.80;;;6.50;99.90;;;;;;5035136;28;20409;-66
2022/03/07 11:40:57;;;;;;;1.05;0.80;;;6.60;99.90;;;;;;5034923;28;20048;-66
2022/03/07 11:43:24;;;;;;;2.47;0.80;;;7.10;99.90;;;;;;5035207;28;20404;-67
2022/03/07 11:45:54;;;;;;;2.00;0.90;;;6.60;99.90;;;;;;5035504;28;20053;-66
2022/03/07 11:48:20;;;;;;;1.15;1.05;;;6.70;99.90;;;;;;5035062;28;20091;-66
2022/03/07 11:50:46;;;;;;;1.10;0.63;;;6.80;99.90;;;;;;5033853;28;20049;-66
2022/03/07 11:53:14;;;;;;;2.03;1.05;;;6.80;99.90;;;;;;5033796;28;20174;-66
2022/03/07 11:55:48;;;;;;;1.83;0.85;;;6.90;99.90;;;;;;5034608;28;20045;-66
2022/03/07 11:58:14;;;;;;;;;;;6.90;99.90;;;;;;5031963;28;20045;-66
2022/03/07 12:00:40;;;;;;;3.88;0.80;;;6.90;99.90;;;;;;5034748;28;19921;-67
2022/03/07 12:03:14;;;;;;;1.15;0.77;;;6.90;99.90;;;;;;5017229;28;20538;-67
2022/03/07 12:05:43;;;;;;;2.08;1.00;;;7.00;99.90;;;;;;5029646;28;20057;-66
2022/03/07 12:08:15;;;;;;;0.80;0.80;;;7.20;99.90;;;;;;5016827;28;20539;-66
2022/03/07 12:10:54;;;;;;;3.35;0.60;;;7.10;99.90;;;;;;5033865;28;20120;-66
2022/03/07 12:13:20;;;;;;;0.98;0.75;;;7.10;99.90;;;;;;5017172;28;20056;-67
2022/03/07 12:15:48;;;;;;;1.15;0.73;;;7.10;99.90;;;;;;5033347;28;20042;-67
2022/03/07 12:18:15;;;;;;;1.63;0.80;;;7.20;99.90;;;;;;5034841;28;20053;-67
2022/03/07 12:20:59;;;;;;;1.63;0.60;;;7.20;99.90;;;;;;4999981;28;20049;-66
2022/03/07 12:23:30;;;;;;;1.27;1.00;;;7.30;99.90;;;;;;5032679;28;20045;-67
2022/03/07 12:26:16;;;;;;;1.40;0.70;;;7.70;99.90;;;;;;5033899;28;20117;-66
2022/03/07 12:28:45;;;;;;;1.38;0.73;;;7.40;99.90;;;;;;5030972;28;20049;-66
2022/03/07 12:31:11;;;;;;;0.70;0.60;;;7.40;99.90;;;;;;5032919;28;20053;-66
2022/03/07 12:33:38;;;;;;;1.90;0.70;;;7.40;99.90;;;;;;5032561;28;20055;-67
2022/03/07 12:36:14;;;;;;;1.33;0.75;;;7.50;99.90;;;;;;5034101;28;20116;-67
2022/03/07 12:38:51;;;;;;;1.30;0.73;;;7.50;99.90;;;;;;5033565;28;20042;-67
2022/03/07 12:41:32;;;;;;;1.40;0.70;;;7.50;99.20;;;;;;5032874;28;20516;-67
2022/03/07 12:43:58;;;;;;;2.25;0.85;;;7.50;98.50;;;;;;5033596;28;20037;-67
2022/03/07 12:46:24;;;;;;;2.47;0.90;;;7.50;96.70;;;;;;5032361;28;20072;-67
2022/03/07 12:48:50;;;;;;;1.13;0.70;;;7.50;97.10;;;;;;5033589;28;20113;-67
2022/03/07 12:51:21;;;;;;;0.93;0.70;;;7.50;97.60;;;;;;5033250;28;20552;-66
2022/03/07 12:53:55;;;;;;;0.80;0.60;;;7.50;97.50;;;;;;5030830;28;20396;-66
2022/03/07 12:56:36;;;;;;;1.23;0.73;;;7.90;97.70;;;;;;5031129;28;20118;-67